sensor_id;sensor_type;location;lat;lon;timestamp;pressure;altitude;pressure_sealevel;temperature;humidity
10606;BME280;5350;42.698;23.148;2023-03-15T00:01:57;92667.69;;;5.09;65.44
10606;BME280;5350;42.698;23.148;2023-03-15T00:04:24;92664.88;;;5.24;64.38
10606;BME280;5350;42.698;23.148;2023-03-15T00:06:51;92668.34;;;5.19;65.04
10606;BME280;5350;42.698;23.148;2023-03-15T00:09:18;92666.00;;;5.18;65.20
10606;BME280;5350;42.698;23.148;2023-03-15T00:11:46;92655.91;;;5.11;65.86
10606;BME280;5350;42.698;23.148;2023-03-15T00:14:13;92666.09;;;5.13;67.59
10606;BME280;5350;42.698;23.148;2023-03-15T00:16:41;92657.81;;;5.06;67.00
10606;BME280;5350;42.698;23.148;2023-03-15T00:19:08;92652.81;;;5.09;66.94
10606;BME280;5350;42.698;23.148;2023-03-15T00:21:35;92658.88;;;5.05;66.46
10606;BME280;5350;42.698;23.148;2023-03-15T00:24:04;92656.75;;;4.83;66.94
10606;BME280;5350;42.698;23.148;2023-03-15T00:26:31;92656.91;;;4.68;68.52
10606;BME280;5350;42.698;23.148;2023-03-15T00:28:58;92667.22;;;4.78;69.92
10606;BME280;5350;42.698;23.148;2023-03-15T00:31:24;92655.59;;;4.70;68.97
10606;BME280;5350;42.698;23.148;2023-03-15T00:33:53;92659.06;;;4.84;69.30
10606;BME280;5350;42.698;23.148;2023-03-15T00:36:20;92645.59;;;5.01;69.45
10606;BME280;5350;42.698;23.148;2023-03-15T00:38:49;92636.63;;;5.12;67.75
10606;BME280;5350;42.698;23.148;2023-03-15T00:41:17;92643.28;;;5.23;67.48
10606;BME280;5350;42.698;23.148;2023-03-15T00:43:44;92635.31;;;5.33;66.60
10606;BME280;5350;42.698;23.148;2023-03-15T00:46:12;92625.94;;;5.32;66.14
10606;BME280;5350;42.698;23.148;2023-03-15T00:48:39;92619.75;;;5.28;67.15
10606;BME280;5350;42.698;23.148;2023-03-15T00:51:09;92613.69;;;5.33;67.29
10606;BME280;5350;42.698;23.148;2023-03-15T00:53:38;92618.50;;;5.44;67.98
10606;BME280;5350;42.698;23.148;2023-03-15T00:56:06;92627.63;;;5.23;68.08
10606;BME280;5350;42.698;23.148;2023-03-15T00:58:34;92618.63;;;5.34;69.27
10606;BME280;5350;42.698;23.148;2023-03-15T01:01:05;92617.94;;;5.05;72.17
10606;BME280;5350;42.698;23.148;2023-03-15T01:03:32;92602.13;;;5.20;71.85
10606;BME280;5350;42.698;23.148;2023-03-15T01:06:00;92602.97;;;5.34;70.33
10606;BME280;5350;42.698;23.148;2023-03-15T01:08:31;92615.38;;;5.42;68.47
10606;BME280;5350;42.698;23.148;2023-03-15T01:11:01;92609.16;;;5.38;66.78
10606;BME280;5350;42.698;23.148;2023-03-15T01:13:28;92610.09;;;5.29;67.85
10606;BME280;5350;42.698;23.148;2023-03-15T01:15:54;92604.53;;;5.35;68.45
10606;BME280;5350;42.698;23.148;2023-03-15T01:18:21;92597.63;;;5.44;68.19
10606;BME280;5350;42.698;23.148;2023-03-15T01:20:48;92585.34;;;5.63;66.14
10606;BME280;5350;42.698;23.148;2023-03-15T01:23:15;92590.56;;;5.63;67.02
10606;BME280;5350;42.698;23.148;2023-03-15T01:25:43;92582.25;;;5.61;68.00
10606;BME280;5350;42.698;23.148;2023-03-15T01:28:09;92580.34;;;5.67;67.27
10606;BME280;5350;42.698;23.148;2023-03-15T01:30:36;92572.66;;;5.76;67.64
10606;BME280;5350;42.698;23.148;2023-03-15T01:33:03;92566.31;;;5.82;67.36
10606;BME280;5350;42.698;23.148;2023-03-15T01:35:30;92573.22;;;5.73;67.76
10606;BME280;5350;42.698;23.148;2023-03-15T01:37:57;92579.22;;;5.73;70.07
10606;BME280;5350;42.698;23.148;2023-03-15T01:40:24;92561.50;;;5.70;69.16
10606;BME280;5350;42.698;23.148;2023-03-15T01:43:09;92556.59;;;5.68;69.25
10606;BME280;5350;42.698;23.148;2023-03-15T01:46:01;92561.16;;;5.77;70.50
10606;BME280;5350;42.698;23.148;2023-03-15T01:48:32;92552.47;;;5.81;70.50
10606;BME280;5350;42.698;23.148;2023-03-15T01:51:01;92543.69;;;5.58;69.29
10606;BME280;5350;42.698;23.148;2023-03-15T01:53:31;92553.34;;;5.77;68.89
10606;BME280;5350;42.698;23.148;2023-03-15T01:55:59;92530.91;;;5.76;68.76
10606;BME280;5350;42.698;23.148;2023-03-15T01:58:28;92540.22;;;5.82;70.34
10606;BME280;5350;42.698;23.148;2023-03-15T02:00:56;92543.22;;;5.56;71.56
10606;BME280;5350;42.698;23.148;2023-03-15T02:03:27;92536.94;;;5.39;71.95
10606;BME280;5350;42.698;23.148;2023-03-15T02:05:57;92531.22;;;5.37;71.61
10606;BME280;5350;42.698;23.148;2023-03-15T02:08:28;92531.94;;;5.42;72.40
10606;BME280;5350;42.698;23.148;2023-03-15T02:10:58;92535.91;;;5.21;74.50
10606;BME280;5350;42.698;23.148;2023-03-15T02:13:29;92526.66;;;5.29;71.56
10606;BME280;5350;42.698;23.148;2023-03-15T02:15:56;92529.91;;;5.02;75.92
10606;BME280;5350;42.698;23.148;2023-03-15T02:18:23;92531.44;;;5.03;76.09
10606;BME280;5350;42.698;23.148;2023-03-15T02:20:55;92525.09;;;5.09;74.58
10606;BME280;5350;42.698;23.148;2023-03-15T02:23:25;92524.06;;;5.10;72.24
10606;BME280;5350;42.698;23.148;2023-03-15T02:25:58;92520.81;;;5.18;69.57
10606;BME280;5350;42.698;23.148;2023-03-15T02:28:30;92529.69;;;5.17;69.70
10606;BME280;5350;42.698;23.148;2023-03-15T02:30:57;92528.47;;;5.10;70.77
10606;BME280;5350;42.698;23.148;2023-03-15T02:33:26;92529.41;;;5.00;70.58
10606;BME280;5350;42.698;23.148;2023-03-15T02:35:55;92522.00;;;5.07;70.10
10606;BME280;5350;42.698;23.148;2023-03-15T02:38:22;92512.94;;;5.05;68.18
10606;BME280;5350;42.698;23.148;2023-03-15T02:40:50;92517.06;;;5.06;68.51
10606;BME280;5350;42.698;23.148;2023-03-15T02:43:22;92516.03;;;5.07;69.28
10606;BME280;5350;42.698;23.148;2023-03-15T02:45:51;92519.97;;;5.04;68.54
10606;BME280;5350;42.698;23.148;2023-03-15T02:48:18;92521.09;;;4.98;68.39
10606;BME280;5350;42.698;23.148;2023-03-15T02:50:45;92495.03;;;4.98;69.74
10606;BME280;5350;42.698;23.148;2023-03-15T02:53:12;92491.31;;;5.04;70.76
10606;BME280;5350;42.698;23.148;2023-03-15T02:55:39;92486.44;;;5.16;69.40
10606;BME280;5350;42.698;23.148;2023-03-15T02:58:06;92482.78;;;5.17;69.64
10606;BME280;5350;42.698;23.148;2023-03-15T03:00:33;92482.19;;;5.20;68.23
10606;BME280;5350;42.698;23.148;2023-03-15T03:03:01;92488.06;;;5.12;68.13
10606;BME280;5350;42.698;23.148;2023-03-15T03:05:27;92469.03;;;5.12;69.09
10606;BME280;5350;42.698;23.148;2023-03-15T03:07:54;92478.19;;;4.91;69.26
10606;BME280;5350;42.698;23.148;2023-03-15T03:10:21;92474.81;;;4.90;69.68
10606;BME280;5350;42.698;23.148;2023-03-15T03:12:48;92472.97;;;4.91;70.88
10606;BME280;5350;42.698;23.148;2023-03-15T03:15:18;92457.06;;;4.92;72.04
10606;BME280;5350;42.698;23.148;2023-03-15T03:17:45;92473.06;;;5.04;69.22
10606;BME280;5350;42.698;23.148;2023-03-15T03:20:13;92479.59;;;4.83;69.40
10606;BME280;5350;42.698;23.148;2023-03-15T03:22:40;92486.28;;;4.70;72.64
10606;BME280;5350;42.698;23.148;2023-03-15T03:25:09;92486.06;;;4.67;74.21
10606;BME280;5350;42.698;23.148;2023-03-15T03:27:36;92486.56;;;4.69;74.27
10606;BME280;5350;42.698;23.148;2023-03-15T03:30:05;92473.75;;;4.72;72.59
10606;BME280;5350;42.698;23.148;2023-03-15T03:32:32;92480.84;;;4.67;72.75
10606;BME280;5350;42.698;23.148;2023-03-15T03:34:59;92478.94;;;4.54;75.19
10606;BME280;5350;42.698;23.148;2023-03-15T03:37:28;92480.97;;;4.57;75.09
10606;BME280;5350;42.698;23.148;2023-03-15T03:39:55;92475.66;;;4.67;74.44
10606;BME280;5350;42.698;23.148;2023-03-15T03:42:22;92470.03;;;4.55;72.13
10606;BME280;5350;42.698;23.148;2023-03-15T03:44:49;92465.97;;;4.49;73.05
10606;BME280;5350;42.698;23.148;2023-03-15T03:47:15;92459.38;;;4.56;72.65
10606;BME280;5350;42.698;23.148;2023-03-15T03:49:42;92456.44;;;4.63;72.40
10606;BME280;5350;42.698;23.148;2023-03-15T03:52:09;92448.72;;;4.53;73.11
10606;BME280;5350;42.698;23.148;2023-03-15T03:54:37;92419.66;;;4.46;72.92
10606;BME280;5350;42.698;23.148;2023-03-15T03:57:04;92435.31;;;4.64;74.02
10606;BME280;5350;42.698;23.148;2023-03-15T03:59:31;92442.13;;;4.79;73.73
10606;BME280;5350;42.698;23.148;2023-03-15T04:01:57;92443.16;;;4.41;73.85
10606;BME280;5350;42.698;23.148;2023-03-15T04:04:24;92440.78;;;4.44;73.38
10606;BME280;5350;42.698;23.148;2023-03-15T04:06:51;92439.50;;;4.42;72.95
10606;BME280;5350;42.698;23.148;2023-03-15T04:09:19;92460.66;;;4.35;74.69
10606;BME280;5350;42.698;23.148;2023-03-15T04:11:47;92436.69;;;4.57;71.44
10606;BME280;5350;42.698;23.148;2023-03-15T04:14:14;92441.97;;;4.52;72.11
10606;BME280;5350;42.698;23.148;2023-03-15T04:16:41;92440.81;;;4.63;70.29
10606;BME280;5350;42.698;23.148;2023-03-15T04:19:07;92439.44;;;4.65;71.48
10606;BME280;5350;42.698;23.148;2023-03-15T04:21:34;92429.25;;;4.69;73.32
10606;BME280;5350;42.698;23.148;2023-03-15T04:24:01;92427.00;;;4.81;72.87
10606;BME280;5350;42.698;23.148;2023-03-15T04:26:28;92431.44;;;4.80;74.11
10606;BME280;5350;42.698;23.148;2023-03-15T04:28:57;92440.72;;;4.86;75.43
10606;BME280;5350;42.698;23.148;2023-03-15T04:31:24;92438.84;;;4.92;74.79
10606;BME280;5350;42.698;23.148;2023-03-15T04:33:51;92429.66;;;4.95;73.64
10606;BME280;5350;42.698;23.148;2023-03-15T04:36:19;92431.28;;;4.91;71.97
10606;BME280;5350;42.698;23.148;2023-03-15T04:38:46;92429.41;;;4.96;70.10
10606;BME280;5350;42.698;23.148;2023-03-15T04:41:13;92429.53;;;5.05;71.10
10606;BME280;5350;42.698;23.148;2023-03-15T04:43:40;92429.94;;;5.12;71.45
10606;BME280;5350;42.698;23.148;2023-03-15T04:46:08;92417.13;;;5.15;67.03
10606;BME280;5350;42.698;23.148;2023-03-15T04:48:35;92410.34;;;5.14;68.64
10606;BME280;5350;42.698;23.148;2023-03-15T04:51:02;92405.69;;;5.11;70.98
10606;BME280;5350;42.698;23.148;2023-03-15T04:53:28;92389.56;;;5.09;69.83
10606;BME280;5350;42.698;23.148;2023-03-15T04:55:55;92398.00;;;5.20;66.41
10606;BME280;5350;42.698;23.148;2023-03-15T04:58:22;92405.06;;;5.19;66.78
10606;BME280;5350;42.698;23.148;2023-03-15T05:00:49;92402.03;;;5.12;68.62
10606;BME280;5350;42.698;23.148;2023-03-15T05:03:17;92407.25;;;5.12;69.97
10606;BME280;5350;42.698;23.148;2023-03-15T05:05:43;92415.16;;;5.07;69.52
10606;BME280;5350;42.698;23.148;2023-03-15T05:08:10;92413.19;;;4.99;68.23
10606;BME280;5350;42.698;23.148;2023-03-15T05:10:37;92413.97;;;5.00;68.97
10606;BME280;5350;42.698;23.148;2023-03-15T05:13:04;92408.41;;;5.06;69.19
10606;BME280;5350;42.698;23.148;2023-03-15T05:15:30;92413.75;;;5.15;71.02
10606;BME280;5350;42.698;23.148;2023-03-15T05:17:57;92416.47;;;5.23;71.57
10606;BME280;5350;42.698;23.148;2023-03-15T05:20:25;92409.03;;;5.30;72.64
10606;BME280;5350;42.698;23.148;2023-03-15T05:22:52;92412.56;;;5.39;69.42
10606;BME280;5350;42.698;23.148;2023-03-15T05:25:19;92401.34;;;5.39;70.15
10606;BME280;5350;42.698;23.148;2023-03-15T05:27:46;92414.88;;;5.41;71.71
10606;BME280;5350;42.698;23.148;2023-03-15T05:30:13;92426.09;;;5.41;72.41
10606;BME280;5350;42.698;23.148;2023-03-15T05:32:41;92431.72;;;4.98;71.22
10606;BME280;5350;42.698;23.148;2023-03-15T05:35:09;92416.41;;;5.10;70.75
10606;BME280;5350;42.698;23.148;2023-03-15T05:37:38;92416.38;;;5.28;72.12
10606;BME280;5350;42.698;23.148;2023-03-15T05:40:08;92414.09;;;5.40;70.84
10606;BME280;5350;42.698;23.148;2023-03-15T05:42:35;92387.44;;;5.30;69.49
10606;BME280;5350;42.698;23.148;2023-03-15T05:45:02;92409.69;;;5.54;70.73
10606;BME280;5350;42.698;23.148;2023-03-15T05:47:29;92401.97;;;5.49;72.80
10606;BME280;5350;42.698;23.148;2023-03-15T05:49:56;92406.25;;;5.59;70.90
10606;BME280;5350;42.698;23.148;2023-03-15T05:52:23;92402.59;;;5.74;67.04
10606;BME280;5350;42.698;23.148;2023-03-15T05:54:52;92390.41;;;5.83;61.94
10606;BME280;5350;42.698;23.148;2023-03-15T05:57:18;92406.50;;;5.90;65.00
10606;BME280;5350;42.698;23.148;2023-03-15T05:59:45;92415.00;;;5.95;65.13
10606;BME280;5350;42.698;23.148;2023-03-15T06:02:12;92403.63;;;6.05;64.57
10606;BME280;5350;42.698;23.148;2023-03-15T06:04:38;92395.09;;;6.13;61.90
10606;BME280;5350;42.698;23.148;2023-03-15T06:07:05;92407.09;;;6.27;62.97
10606;BME280;5350;42.698;23.148;2023-03-15T06:09:32;92418.69;;;6.35;63.14
10606;BME280;5350;42.698;23.148;2023-03-15T06:12:00;92412.97;;;6.33;62.94
10606;BME280;5350;42.698;23.148;2023-03-15T06:14:27;92410.84;;;6.49;63.27
10606;BME280;5350;42.698;23.148;2023-03-15T06:16:54;92406.19;;;6.59;62.58
10606;BME280;5350;42.698;23.148;2023-03-15T06:19:21;92412.84;;;6.65;62.87
10606;BME280;5350;42.698;23.148;2023-03-15T06:21:48;92423.25;;;6.79;63.08
10606;BME280;5350;42.698;23.148;2023-03-15T06:24:15;92414.13;;;6.90;62.72
10606;BME280;5350;42.698;23.148;2023-03-15T06:26:42;92415.31;;;6.84;61.81
10606;BME280;5350;42.698;23.148;2023-03-15T06:29:10;92412.78;;;6.92;62.96
10606;BME280;5350;42.698;23.148;2023-03-15T06:31:37;92412.63;;;7.11;62.46
10606;BME280;5350;42.698;23.148;2023-03-15T06:34:03;92405.53;;;7.11;61.69
10606;BME280;5350;42.698;23.148;2023-03-15T06:36:30;92417.31;;;7.22;60.66
10606;BME280;5350;42.698;23.148;2023-03-15T06:38:57;92404.38;;;7.17;59.69
10606;BME280;5350;42.698;23.148;2023-03-15T06:41:24;92418.31;;;7.35;61.13
10606;BME280;5350;42.698;23.148;2023-03-15T06:43:51;92410.78;;;7.34;59.25
10606;BME280;5350;42.698;23.148;2023-03-15T06:46:19;92404.81;;;7.42;60.36
10606;BME280;5350;42.698;23.148;2023-03-15T06:48:45;92407.66;;;7.54;59.18
10606;BME280;5350;42.698;23.148;2023-03-15T06:51:12;92410.81;;;7.64;55.97
10606;BME280;5350;42.698;23.148;2023-03-15T06:53:39;92408.81;;;7.70;55.69
10606;BME280;5350;42.698;23.148;2023-03-15T06:56:06;92421.34;;;7.73;55.09
10606;BME280;5350;42.698;23.148;2023-03-15T06:58:33;92416.44;;;7.80;54.39
10606;BME280;5350;42.698;23.148;2023-03-15T07:00:59;92406.19;;;7.92;53.16
10606;BME280;5350;42.698;23.148;2023-03-15T07:03:28;92409.34;;;7.80;54.77
10606;BME280;5350;42.698;23.148;2023-03-15T07:05:54;92414.97;;;7.96;54.47
10606;BME280;5350;42.698;23.148;2023-03-15T07:08:23;92408.84;;;8.00;54.67
10606;BME280;5350;42.698;23.148;2023-03-15T07:10:50;92406.75;;;8.11;54.61
10606;BME280;5350;42.698;23.148;2023-03-15T07:13:18;92405.19;;;8.10;52.78
